createdAt,value
2017-05-18T00:00:49.631Z,20.81
2017-05-18T00:02:00.662Z,20.78
2017-05-18T00:03:11.685Z,20.75
2017-05-18T00:04:22.766Z,20.72
2017-05-18T00:05:33.848Z,20.75
2017-05-18T00:06:45.063Z,20.71
2017-05-18T00:07:56.114Z,20.76
2017-05-18T00:09:07.149Z,20.71
2017-05-18T00:10:18.160Z,20.76
2017-05-18T00:11:29.231Z,20.68
2017-05-18T00:12:40.454Z,20.72
2017-05-18T00:13:51.479Z,20.64
2017-05-18T00:15:02.530Z,20.64
2017-05-18T00:16:13.582Z,20.6
2017-05-18T00:17:24.651Z,20.63
2017-05-18T00:18:35.659Z,20.57
2017-05-18T00:19:46.878Z,20.53
2017-05-18T00:20:57.895Z,20.46
2017-05-18T00:22:08.931Z,20.44
2017-05-18T00:23:19.997Z,20.46
2017-05-18T00:24:31.029Z,20.42
2017-05-18T00:25:42.048Z,20.4
2017-05-18T00:26:53.068Z,20.44
2017-05-18T00:28:04.086Z,20.42
2017-05-18T00:29:15.143Z,20.4
2017-05-18T00:30:26.168Z,20.51
2017-05-18T00:31:37.179Z,20.38
2017-05-18T00:32:48.201Z,20.46
2017-05-18T00:33:59.217Z,20.41
2017-05-18T00:35:10.267Z,20.4
2017-05-18T00:36:21.283Z,20.35
2017-05-18T00:37:32.504Z,20.38
2017-05-18T00:38:43.730Z,20.38
2017-05-18T00:39:54.755Z,20.3
2017-05-18T00:41:05.818Z,20.32
2017-05-18T00:42:16.839Z,20.35
2017-05-18T00:43:27.869Z,20.22
2017-05-18T00:44:38.893Z,20.3
2017-05-18T00:45:49.969Z,20.34
2017-05-18T00:47:01.041Z,20.32
2017-05-18T00:48:12.048Z,20.25
2017-05-18T00:49:23.466Z,20.2
2017-05-18T00:50:34.497Z,20.23
2017-05-18T00:51:45.528Z,20.27
2017-05-18T00:52:56.588Z,20.32
2017-05-18T00:54:07.624Z,20.27
2017-05-18T00:55:18.646Z,20.27
2017-05-18T00:56:29.655Z,20.2
2017-05-18T00:57:40.679Z,20.22
2017-05-18T00:58:51.752Z,20.25
2017-05-18T01:00:02.979Z,20.15
2017-05-18T01:01:13.992Z,20.07
2017-05-18T01:02:25.016Z,20.12
2017-05-18T01:03:36.025Z,20.08
2017-05-18T01:04:47.107Z,20.08
2017-05-18T01:05:58.172Z,20.12
2017-05-18T01:07:09.209Z,20.12
2017-05-18T01:08:20.228Z,20
2017-05-18T01:09:31.247Z,20.12
2017-05-18T01:10:42.462Z,20.15
2017-05-18T01:11:53.472Z,20.12
2017-05-18T01:13:04.498Z,20.08
2017-05-18T01:14:15.506Z,20.12
2017-05-18T01:15:26.573Z,20.1
2017-05-18T01:16:37.588Z,20.05
2017-05-18T01:17:48.608Z,20.08
2017-05-18T01:18:59.837Z,20.1
2017-05-18T01:20:10.866Z,20.1
2017-05-18T01:21:22.154Z,20.11
2017-05-18T01:22:33.187Z,20.04
2017-05-18T01:23:44.272Z,20.05
2017-05-18T01:24:55.492Z,20.07
2017-05-18T01:26:06.716Z,20
2017-05-18T01:27:17.798Z,19.97
2017-05-18T01:28:28.821Z,20
2017-05-18T01:29:40.045Z,19.95
2017-05-18T01:30:51.252Z,19.98
2017-05-18T01:32:02.267Z,19.9
2017-05-18T01:33:13.529Z,19.93
2017-05-18T01:34:24.551Z,19.9
2017-05-18T01:35:35.584Z,19.98
2017-05-18T01:36:46.800Z,19.92
2017-05-18T01:37:58.035Z,19.83
2017-05-18T01:39:09.309Z,19.83
2017-05-18T01:40:20.324Z,19.79
2017-05-18T01:41:31.335Z,19.78
2017-05-18T01:42:42.544Z,19.83
2017-05-18T01:43:53.562Z,19.86
2017-05-18T01:45:04.630Z,19.83
2017-05-18T01:46:15.648Z,19.79
2017-05-18T01:47:26.665Z,19.8
2017-05-18T01:48:37.685Z,19.79
2017-05-18T01:49:48.701Z,19.8
2017-05-18T01:50:59.768Z,19.8
2017-05-18T01:52:10.795Z,19.82
2017-05-18T01:53:21.815Z,19.82
2017-05-18T01:54:32.839Z,19.8
2017-05-18T01:55:44.118Z,19.79
2017-05-18T01:56:55.188Z,19.75
2017-05-18T01:58:06.214Z,19.7
2017-05-18T01:59:17.237Z,19.75
2017-05-18T02:00:28.260Z,19.75
2017-05-18T02:01:39.519Z,19.72
2017-05-18T02:02:50.752Z,19.68
2017-05-18T02:04:01.983Z,19.64
2017-05-18T02:05:13.007Z,19.65
2017-05-18T02:06:24.248Z,19.68
2017-05-18T02:07:35.313Z,19.64
2017-05-18T02:08:46.340Z,19.61
2017-05-18T02:09:57.579Z,19.5
2017-05-18T02:11:08.604Z,19.57
2017-05-18T02:12:19.620Z,19.67
2017-05-18T02:13:30.710Z,19.63
2017-05-18T02:14:41.926Z,19.67
2017-05-18T02:15:52.939Z,19.61
2017-05-18T02:17:04.149Z,19.57
2017-05-18T02:18:15.169Z,19.6
2017-05-18T02:19:26.241Z,19.61
2017-05-18T02:20:37.251Z,19.63
2017-05-18T02:21:48.280Z,19.56
2017-05-18T02:22:59.299Z,19.49
2017-05-18T02:24:10.514Z,19.55
2017-05-18T02:25:21.576Z,19.43
2017-05-18T02:26:32.802Z,19.53
2017-05-18T02:27:43.838Z,19.49
2017-05-18T02:28:55.063Z,19.46
2017-05-18T02:30:06.086Z,19.43
2017-05-18T02:31:17.158Z,19.47
2017-05-18T02:32:28.179Z,19.3
2017-05-18T02:33:39.192Z,19.2
2017-05-18T02:34:50.399Z,19.25
2017-05-18T02:36:01.416Z,19.27
2017-05-18T02:37:12.680Z,19.24
2017-05-18T02:38:23.703Z,19.25
2017-05-18T02:39:34.738Z,19.3
2017-05-18T02:40:45.801Z,19.25
2017-05-18T02:41:56.813Z,19.25
2017-05-18T02:43:07.873Z,19.25
2017-05-18T02:44:19.091Z,19.19
2017-05-18T02:45:30.109Z,19.28
2017-05-18T02:46:41.323Z,19.1
2017-05-18T02:47:52.536Z,19.16
2017-05-18T02:49:04.008Z,19.07
2017-05-18T02:50:15.069Z,19.07
2017-05-18T02:51:26.278Z,19.13
2017-05-18T02:52:37.282Z,19.15
2017-05-18T02:53:48.305Z,19.13
2017-05-18T02:54:59.376Z,19.1
2017-05-18T02:56:10.461Z,19.16
2017-05-18T02:57:21.516Z,19.1
2017-05-18T02:58:32.529Z,19.16
2017-05-18T02:59:43.751Z,19.15
2017-05-18T03:00:54.971Z,19.05
2017-05-18T03:02:05.975Z,19.13
2017-05-18T03:03:17.001Z,19.07
2017-05-18T03:04:28.024Z,19.1
2017-05-18T03:05:39.129Z,19.09
2017-05-18T03:06:50.149Z,19.12
2017-05-18T03:08:01.365Z,19.12
2017-05-18T03:09:12.390Z,19.12
2017-05-18T03:10:23.424Z,19.07
2017-05-18T03:11:34.479Z,19.1
2017-05-18T03:12:45.501Z,19.13
2017-05-18T03:13:56.530Z,19.07
2017-05-18T03:15:07.549Z,19.07
2017-05-18T03:16:18.758Z,19.16
2017-05-18T03:17:29.824Z,19.1
2017-05-18T03:18:40.846Z,19.12
2017-05-18T03:19:51.856Z,19.1
2017-05-18T03:21:02.881Z,19.09
2017-05-18T03:22:13.888Z,19.02
2017-05-18T03:23:24.954Z,19.09
2017-05-18T03:24:35.976Z,19.09
2017-05-18T03:25:47.014Z,19.09
2017-05-18T03:26:58.029Z,19.1
2017-05-18T03:28:09.304Z,19.1
2017-05-18T03:29:20.591Z,19.07
2017-05-18T03:30:31.601Z,18.93
2017-05-18T03:31:42.612Z,18.96
2017-05-18T03:32:53.827Z,18.97
2017-05-18T03:34:04.849Z,18.94
2017-05-18T03:35:15.904Z,19.02
2017-05-18T03:36:26.921Z,19.02
2017-05-18T03:37:37.948Z,18.97
2017-05-18T03:38:48.957Z,18.99
2017-05-18T03:40:00.181Z,18.91
2017-05-18T03:41:11.252Z,18.96
2017-05-18T03:42:22.266Z,19
2017-05-18T03:43:33.278Z,18.93
2017-05-18T03:44:44.294Z,18.96
2017-05-18T03:45:55.513Z,18.94
2017-05-18T03:47:06.595Z,18.99
2017-05-18T03:48:17.613Z,18.93
2017-05-18T03:49:28.650Z,18.94
2017-05-18T03:50:39.671Z,18.93
2017-05-18T03:51:50.690Z,18.96
2017-05-18T03:53:01.817Z,18.84
2017-05-18T03:54:12.844Z,18.94
2017-05-18T03:55:23.915Z,18.9
2017-05-18T03:56:35.128Z,18.79
2017-05-18T03:57:46.360Z,18.81
2017-05-18T03:58:57.429Z,18.79
2017-05-18T04:00:08.451Z,18.91
2017-05-18T04:01:19.471Z,18.91
2017-05-18T04:02:30.480Z,18.94
2017-05-18T04:03:41.509Z,18.84
2017-05-18T04:04:52.775Z,18.89
2017-05-18T04:06:03.999Z,18.9
2017-05-18T04:07:15.423Z,18.79
2017-05-18T04:08:26.443Z,18.91
2017-05-18T04:09:37.467Z,18.97
2017-05-18T04:10:48.479Z,18.96
2017-05-18T04:11:59.700Z,19.02
2017-05-18T04:13:10.712Z,18.94
2017-05-18T04:14:21.791Z,19
2017-05-18T04:15:32.869Z,18.97
2017-05-18T04:16:44.085Z,19.05
2017-05-18T04:17:55.103Z,19.13
2017-05-18T04:19:06.109Z,19.1
2017-05-18T04:20:17.322Z,19.15
2017-05-18T04:21:28.396Z,19.35
2017-05-18T04:22:39.403Z,19.61
2017-05-18T04:23:50.424Z,19.92
2017-05-18T04:25:01.439Z,20.26
2017-05-18T04:26:12.459Z,20.71
2017-05-18T04:27:23.735Z,21.01
2017-05-18T04:28:34.757Z,21.31
2017-05-18T04:29:45.795Z,21.64
2017-05-18T04:30:57.004Z,21.85
2017-05-18T04:32:08.237Z,22.04
2017-05-18T04:33:19.291Z,22.22
2017-05-18T04:34:30.314Z,22.29
2017-05-18T04:35:41.333Z,22.45
2017-05-18T04:36:52.556Z,22.59
2017-05-18T04:38:03.639Z,22.46
2017-05-18T04:39:14.913Z,22.39
2017-05-18T04:40:26.331Z,22.26
2017-05-18T04:41:37.349Z,22.07
2017-05-18T04:42:48.574Z,22.12
2017-05-18T04:43:59.606Z,22.16
2017-05-18T04:45:10.680Z,22.22
2017-05-18T04:46:21.703Z,22.48
2017-05-18T04:47:32.722Z,22.66
2017-05-18T04:48:43.950Z,22.71
2017-05-18T04:49:54.986Z,22.71
2017-05-18T04:51:06.065Z,22.76
2017-05-18T04:52:17.113Z,22.81
2017-05-18T04:53:28.138Z,22.73
2017-05-18T04:54:39.168Z,22.66
2017-05-18T04:55:50.195Z,22.57
2017-05-18T04:57:01.253Z,22.57
2017-05-18T04:58:12.472Z,22.69
2017-05-18T04:59:23.485Z,22.86
2017-05-18T05:00:34.522Z,22.99
2017-05-18T05:01:45.556Z,22.99
2017-05-18T05:02:56.628Z,23.06
2017-05-18T05:04:07.653Z,23
2017-05-18T05:05:18.916Z,22.84
2017-05-18T05:06:29.937Z,22.78
2017-05-18T05:07:41.021Z,22.89
2017-05-18T05:08:52.087Z,22.84
2017-05-18T05:10:03.338Z,23
2017-05-18T05:11:14.370Z,23.03
2017-05-18T05:12:25.387Z,23.1
2017-05-18T05:13:36.814Z,23.07
2017-05-18T05:14:47.901Z,23.16
2017-05-18T05:15:58.918Z,23.37
2017-05-18T05:17:09.953Z,23.53
2017-05-18T05:18:20.976Z,23.62
2017-05-18T05:19:32.003Z,23.79
2017-05-18T05:20:43.025Z,23.81
2017-05-18T05:21:54.040Z,23.92
2017-05-18T05:23:05.071Z,23.77
2017-05-18T05:24:16.096Z,23.64
2017-05-18T05:25:27.226Z,23.57
2017-05-18T05:26:38.245Z,23.57
2017-05-18T05:27:49.276Z,23.42
2017-05-18T05:29:00.519Z,23.29
2017-05-18T05:30:11.543Z,23.19
2017-05-18T05:31:22.615Z,23.14
2017-05-18T05:32:33.638Z,23.04
2017-05-18T05:33:44.663Z,22.97
2017-05-18T05:34:55.683Z,22.89
2017-05-18T05:36:06.767Z,22.94
2017-05-18T05:37:18.048Z,22.86
2017-05-18T05:38:29.285Z,22.78
2017-05-18T05:39:40.307Z,22.67
2017-05-18T05:40:51.334Z,22.59
2017-05-18T05:42:02.361Z,22.54
2017-05-18T05:43:13.434Z,22.49
2017-05-18T05:44:24.658Z,22.55
2017-05-18T05:45:35.693Z,22.55
2017-05-18T05:46:46.730Z,22.57
2017-05-18T05:47:57.751Z,22.64
2017-05-18T05:49:08.826Z,22.57
2017-05-18T05:50:19.847Z,22.67
2017-05-18T05:51:31.062Z,22.6
2017-05-18T05:52:42.279Z,22.76
2017-05-18T05:53:53.308Z,22.86
2017-05-18T05:55:04.381Z,22.92
2017-05-18T05:56:15.400Z,23.04
2017-05-18T05:57:26.421Z,22.92
2017-05-18T05:58:37.444Z,23.06
2017-05-18T05:59:48.673Z,23.21
2017-05-18T06:00:59.700Z,23.38
2017-05-18T06:02:10.720Z,23.53
2017-05-18T06:03:21.745Z,23.62
2017-05-18T06:04:32.811Z,23.81
2017-05-18T06:05:44.186Z,23.89
2017-05-18T06:06:55.207Z,24
2017-05-18T06:08:06.240Z,24.03
2017-05-18T06:09:17.278Z,24.11
2017-05-18T06:10:28.307Z,24.08
2017-05-18T06:11:39.595Z,24.02
2017-05-18T06:12:50.609Z,23.99
2017-05-18T06:14:01.636Z,23.92
2017-05-18T06:15:12.659Z,23.87
2017-05-18T06:16:23.674Z,23.89
2017-05-18T06:17:34.750Z,23.82
2017-05-18T06:18:45.801Z,23.87
2017-05-18T06:19:56.830Z,23.85
2017-05-18T06:21:07.851Z,23.97
2017-05-18T06:22:18.872Z,24.03
2017-05-18T06:23:29.937Z,24.07
2017-05-18T06:24:40.971Z,24.22
2017-05-18T06:25:51.987Z,24.3
2017-05-18T06:27:03.032Z,24.45
2017-05-18T06:28:14.065Z,24.54
2017-05-18T06:29:25.135Z,24.77
2017-05-18T06:30:36.162Z,24.92
2017-05-18T06:31:47.189Z,25.07
2017-05-18T06:32:58.424Z,25.12
2017-05-18T06:34:09.443Z,25.37
2017-05-18T06:35:20.529Z,25.29
2017-05-18T06:36:31.557Z,25.19
2017-05-18T06:37:42.780Z,24.85
2017-05-18T06:38:54.011Z,24.58
2017-05-18T06:40:05.085Z,24.51
2017-05-18T06:41:16.159Z,24.37
2017-05-18T06:42:27.176Z,24.3
2017-05-18T06:43:38.213Z,24.51
2017-05-18T06:44:49.447Z,24.77
2017-05-18T06:46:00.474Z,24.94
2017-05-18T06:47:11.651Z,25
2017-05-18T06:48:22.675Z,25.04
2017-05-18T06:49:33.696Z,24.97
2017-05-18T06:50:44.924Z,24.85
2017-05-18T06:51:55.950Z,24.83
2017-05-18T06:53:07.027Z,24.87
2017-05-18T06:54:18.051Z,24.7
2017-05-18T06:55:29.079Z,24.75
2017-05-18T06:56:40.103Z,24.74
2017-05-18T06:57:51.131Z,24.58
2017-05-18T06:59:02.296Z,24.7
2017-05-18T07:00:13.318Z,24.71
2017-05-18T07:01:24.366Z,24.7
2017-05-18T07:02:35.599Z,24.74
2017-05-18T07:03:46.631Z,25.08
2017-05-18T07:04:57.815Z,25.32
2017-05-18T07:06:08.839Z,25.64
2017-05-18T07:07:19.871Z,26.03
2017-05-18T07:08:30.892Z,26.19
2017-05-18T07:09:41.914Z,26.19
2017-05-18T07:10:52.949Z,25.99
2017-05-18T07:12:03.959Z,25.88
2017-05-18T07:13:15.192Z,25.79
2017-05-18T07:14:26.229Z,25.7
2017-05-18T07:15:37.310Z,25.6
2017-05-18T07:16:48.346Z,25.44
2017-05-18T07:17:59.378Z,25.44
2017-05-18T07:19:10.405Z,25.39
2017-05-18T07:20:21.417Z,25.49
2017-05-18T07:21:32.488Z,25.42
2017-05-18T07:22:43.514Z,25.71
2017-05-18T07:23:54.549Z,25.86
2017-05-18T07:25:05.772Z,25.97
2017-05-18T07:26:16.991Z,26.06
2017-05-18T07:27:28.265Z,25.88
2017-05-18T07:28:39.306Z,25.82
2017-05-18T07:29:50.339Z,25.6
2017-05-18T07:31:01.375Z,25.52
2017-05-18T07:32:12.597Z,25.33
2017-05-18T07:33:24.074Z,25.14
2017-05-18T07:34:35.096Z,24.94
2017-05-18T07:35:46.311Z,24.85
2017-05-18T07:36:57.339Z,24.83
2017-05-18T07:38:08.382Z,24.45
2017-05-18T07:39:19.456Z,24.33
2017-05-18T07:40:30.475Z,24.19
2017-05-18T07:41:41.498Z,24.08
2017-05-18T07:42:52.519Z,24
2017-05-18T07:44:03.541Z,23.64
2017-05-18T07:45:14.617Z,23.5
2017-05-18T07:46:25.854Z,23.44
2017-05-18T07:47:37.086Z,23.38
2017-05-18T07:48:48.098Z,23.28
2017-05-18T07:49:59.130Z,23.18
2017-05-18T07:51:10.197Z,23.18
2017-05-18T07:52:21.220Z,23.03
2017-05-18T07:53:32.237Z,23.04
2017-05-18T07:54:43.267Z,22.89
2017-05-18T07:55:54.295Z,22.86
2017-05-18T07:57:05.350Z,22.92
2017-05-18T07:58:16.573Z,22.84
2017-05-18T07:59:27.788Z,22.84
2017-05-18T08:00:38.805Z,22.99
2017-05-18T08:01:49.832Z,23
2017-05-18T08:03:01.097Z,23.06
2017-05-18T08:04:12.116Z,23.22
2017-05-18T08:05:23.339Z,23.41
2017-05-18T08:06:34.363Z,23.37
2017-05-18T08:07:45.398Z,23.45
2017-05-18T08:08:56.467Z,23.38
2017-05-18T08:10:07.542Z,23.25
2017-05-18T08:11:18.605Z,23.29
2017-05-18T08:12:29.674Z,23.15
2017-05-18T08:13:40.708Z,23.18
2017-05-18T08:14:51.786Z,23.18
2017-05-18T08:16:02.803Z,23.26
2017-05-18T08:17:13.838Z,23.29
2017-05-18T08:18:25.109Z,23.29
2017-05-18T08:19:36.145Z,23.22
2017-05-18T08:20:47.363Z,23.32
2017-05-18T08:21:58.582Z,23.16
2017-05-18T08:23:09.595Z,23.12
2017-05-18T08:24:20.634Z,23.14
2017-05-18T08:25:31.904Z,23.03
2017-05-18T08:26:42.924Z,23.03
2017-05-18T08:27:53.929Z,22.88
2017-05-18T08:29:04.964Z,22.92
2017-05-18T08:30:16.196Z,22.89
2017-05-18T08:31:27.461Z,22.81
2017-05-18T08:32:38.481Z,22.79
2017-05-18T08:33:49.709Z,22.97
2017-05-18T08:35:00.936Z,22.89
2017-05-18T08:36:11.950Z,22.88
2017-05-18T08:37:23.057Z,22.92
2017-05-18T08:38:34.080Z,22.92
2017-05-18T08:39:45.299Z,23.07
2017-05-18T08:40:56.320Z,23
2017-05-18T08:42:07.340Z,22.97
2017-05-18T08:43:18.408Z,22.92
2017-05-18T08:44:29.628Z,22.94
2017-05-18T08:45:40.852Z,23.09
2017-05-18T08:46:51.875Z,23.22
2017-05-18T08:48:02.912Z,23.28
2017-05-18T08:49:14.002Z,23.37
2017-05-18T08:50:25.014Z,23.6
2017-05-18T08:51:36.017Z,23.62
2017-05-18T08:52:47.244Z,23.87
2017-05-18T08:53:58.474Z,24.18
2017-05-18T08:55:09.748Z,24.3
2017-05-18T08:56:20.771Z,24.48
2017-05-18T08:57:31.920Z,24.7
2017-05-18T08:58:42.944Z,24.77
2017-05-18T08:59:54.164Z,24.82
2017-05-18T09:01:05.235Z,24.87
2017-05-18T09:02:16.311Z,24.8
2017-05-18T09:03:27.327Z,24.69
2017-05-18T09:04:38.355Z,24.48
2017-05-18T09:05:49.390Z,24.3
2017-05-18T09:07:00.467Z,24.11
2017-05-18T09:08:11.690Z,24.11
2017-05-18T09:09:22.720Z,24.09
2017-05-18T09:10:33.752Z,24.09
2017-05-18T09:11:44.978Z,24.11
2017-05-18T09:12:56.046Z,24.29
2017-05-18T09:14:07.062Z,24.33
2017-05-18T09:15:18.100Z,24.77
2017-05-18T09:16:29.332Z,24.93
2017-05-18T09:17:40.352Z,25.22
2017-05-18T09:18:51.440Z,25.27
2017-05-18T09:20:02.472Z,25.15
2017-05-18T09:21:13.490Z,25.15
2017-05-18T09:22:24.542Z,25.17
2017-05-18T09:23:35.777Z,25.15
2017-05-18T09:24:46.860Z,25.19
2017-05-18T09:25:57.903Z,25.14
2017-05-18T09:27:09.128Z,25.05
2017-05-18T09:28:20.155Z,25.04
2017-05-18T09:29:31.181Z,25.05
2017-05-18T09:30:42.402Z,25.11
2017-05-18T09:31:53.638Z,25.19
2017-05-18T09:33:04.670Z,25.2
2017-05-18T09:34:15.696Z,25.19
2017-05-18T09:35:26.966Z,25.3
2017-05-18T09:36:37.992Z,25.27
2017-05-18T09:37:49.021Z,25.22
2017-05-18T09:39:00.102Z,25.23
2017-05-18T09:40:11.136Z,25.19
2017-05-18T09:41:22.415Z,25.33
2017-05-18T09:42:33.533Z,25.39
2017-05-18T09:43:44.556Z,25.44
2017-05-18T09:44:55.573Z,25.52
2017-05-18T09:46:06.606Z,25.64
2017-05-18T09:47:17.690Z,25.6
2017-05-18T09:48:28.733Z,25.7
2017-05-18T09:49:39.968Z,25.71
2017-05-18T09:50:51.004Z,25.79
2017-05-18T09:52:02.046Z,25.76
2017-05-18T09:53:13.122Z,25.81
2017-05-18T09:54:24.350Z,25.69
2017-05-18T09:55:35.367Z,25.86
2017-05-18T09:56:46.395Z,25.97
2017-05-18T09:57:57.612Z,26.01
2017-05-18T09:59:08.692Z,26.22
2017-05-18T10:00:19.722Z,26.35
2017-05-18T10:01:30.752Z,26.41
2017-05-18T10:02:42.046Z,26.45
2017-05-18T10:03:53.081Z,26.32
2017-05-18T10:05:04.176Z,26.15
2017-05-18T10:06:15.219Z,26.17
2017-05-18T10:07:26.262Z,26.06
2017-05-18T10:08:37.307Z,25.94
2017-05-18T10:09:48.340Z,25.84
2017-05-18T10:10:59.572Z,25.79
2017-05-18T10:12:10.593Z,25.45
2017-05-18T10:13:21.620Z,25.44
2017-05-18T10:14:32.644Z,25.38
2017-05-18T10:15:43.723Z,25.33
2017-05-18T10:16:54.740Z,25.34
2017-05-18T10:18:05.969Z,25.41
2017-05-18T10:19:17.019Z,25.38
2017-05-18T10:20:28.244Z,25.44
2017-05-18T10:21:39.307Z,25.33
2017-05-18T10:22:50.337Z,25.3
2017-05-18T10:24:01.370Z,25.2
2017-05-18T10:25:12.640Z,25.15
2017-05-18T10:26:23.861Z,25.05
2017-05-18T10:27:34.938Z,24.92
2017-05-18T10:28:46.034Z,24.69
2017-05-18T10:29:57.066Z,24.59
2017-05-18T10:31:08.320Z,24.58
2017-05-18T10:32:19.349Z,24.64
2017-05-18T10:33:30.427Z,24.75
2017-05-18T10:34:41.452Z,24.77
2017-05-18T10:35:52.480Z,24.89
2017-05-18T10:37:03.513Z,25.04
2017-05-18T10:38:14.536Z,25.08
2017-05-18T10:39:25.615Z,25.07
2017-05-18T10:40:36.637Z,25.17
2017-05-18T10:41:47.654Z,25.05
2017-05-18T10:42:58.881Z,25.15
2017-05-18T10:44:09.908Z,25.23
2017-05-18T10:45:20.984Z,25.17
2017-05-18T10:46:32.009Z,25.3
2017-05-18T10:47:43.039Z,25.29
2017-05-18T10:48:54.067Z,25.24
2017-05-18T10:50:05.112Z,25.22
2017-05-18T10:51:16.186Z,25.01
2017-05-18T10:52:27.284Z,25.02
2017-05-18T10:53:38.316Z,25.05
2017-05-18T10:54:49.342Z,25.17
2017-05-18T10:56:00.575Z,25.27
2017-05-18T10:57:11.852Z,25.32
2017-05-18T10:58:22.876Z,25.34
2017-05-18T10:59:33.906Z,25.45
2017-05-18T11:00:44.930Z,25.47
2017-05-18T11:01:55.946Z,25.51
2017-05-18T11:03:07.027Z,25.62
2017-05-18T11:04:18.123Z,25.54
2017-05-18T11:05:29.150Z,25.6
2017-05-18T11:06:40.372Z,25.59
2017-05-18T11:07:51.405Z,25.52
2017-05-18T11:09:02.486Z,25.62
2017-05-18T11:10:13.532Z,25.45
2017-05-18T11:11:24.558Z,25.47
2017-05-18T11:12:35.585Z,25.45
2017-05-18T11:13:46.630Z,25.39
2017-05-18T11:14:57.723Z,25.24
2017-05-18T11:16:08.757Z,25.15
2017-05-18T11:17:19.982Z,25.12
2017-05-18T11:18:31.021Z,25.2
2017-05-18T11:19:42.245Z,25.05
2017-05-18T11:20:53.269Z,25.07
2017-05-18T11:22:04.288Z,25.05
2017-05-18T11:23:15.313Z,25.08
2017-05-18T11:24:26.544Z,25.09
2017-05-18T11:25:37.618Z,25.09
2017-05-18T11:26:48.643Z,25.14
2017-05-18T11:27:59.698Z,25.17
2017-05-18T11:29:10.929Z,25.14
2017-05-18T11:30:21.948Z,25.09
2017-05-18T11:31:33.228Z,25.14
2017-05-18T11:32:44.254Z,25.12
2017-05-18T11:33:55.689Z,25.08
2017-05-18T11:35:06.707Z,25.09
2017-05-18T11:36:17.753Z,25.05
2017-05-18T11:37:28.822Z,25.01
2017-05-18T11:38:40.100Z,24.92
2017-05-18T11:39:51.139Z,24.87
2017-05-18T11:41:02.159Z,24.78
2017-05-18T11:42:13.175Z,24.83
2017-05-18T11:43:24.455Z,24.7
2017-05-18T11:44:35.475Z,24.69
2017-05-18T11:45:46.483Z,24.69
2017-05-18T11:46:57.517Z,24.77
2017-05-18T11:48:08.548Z,24.71
2017-05-18T11:49:19.702Z,24.71
2017-05-18T11:50:31.013Z,24.69
2017-05-18T11:51:42.039Z,24.61
2017-05-18T11:52:53.072Z,24.58
2017-05-18T11:54:04.095Z,24.55
2017-05-18T11:55:15.172Z,24.63
2017-05-18T11:56:26.200Z,24.51
2017-05-18T11:57:37.225Z,24.58
2017-05-18T11:58:48.253Z,24.48
2017-05-18T11:59:59.272Z,24.39
2017-05-18T12:01:10.343Z,24.3
2017-05-18T12:02:21.554Z,24.27
2017-05-18T12:03:32.579Z,24.15
2017-05-18T12:04:43.802Z,24.11
2017-05-18T12:05:54.830Z,24.07
2017-05-18T12:07:06.111Z,23.96
2017-05-18T12:08:17.153Z,23.87
2017-05-18T12:09:28.181Z,23.87
2017-05-18T12:10:39.203Z,23.93
2017-05-18T12:11:50.220Z,23.81
2017-05-18T12:13:01.293Z,23.84
2017-05-18T12:14:12.311Z,23.75
2017-05-18T12:15:23.334Z,23.67
2017-05-18T12:16:34.346Z,23.67
2017-05-18T12:17:45.374Z,23.62
2017-05-18T12:18:56.461Z,23.6
2017-05-18T12:20:07.520Z,23.55
2017-05-18T12:21:18.540Z,23.63
2017-05-18T12:22:29.566Z,23.52
2017-05-18T12:23:40.590Z,23.62
2017-05-18T12:24:51.602Z,23.53
2017-05-18T12:26:02.624Z,23.57
2017-05-18T12:27:13.644Z,23.59
2017-05-18T12:28:24.666Z,23.45
2017-05-18T12:29:35.726Z,23.41
2017-05-18T12:30:46.963Z,23.24
2017-05-18T12:31:57.977Z,23.22
2017-05-18T12:33:08.999Z,23.32
2017-05-18T12:34:20.065Z,23.19
2017-05-18T12:35:31.144Z,23.19
2017-05-18T12:36:42.156Z,23.16
2017-05-18T12:37:53.165Z,23.07
2017-05-18T12:39:04.198Z,22.94
2017-05-18T12:40:15.237Z,23
2017-05-18T12:41:26.293Z,22.92
2017-05-18T12:42:37.501Z,22.85
2017-05-18T12:43:48.717Z,22.81
2017-05-18T12:44:59.723Z,22.73
2017-05-18T12:46:10.741Z,22.64
2017-05-18T12:47:21.813Z,22.54
2017-05-18T12:48:32.831Z,22.45
2017-05-18T12:49:43.848Z,22.41
2017-05-18T12:50:54.881Z,22.41
2017-05-18T12:52:05.906Z,22.36
2017-05-18T12:53:16.981Z,22.34
2017-05-18T12:54:28.005Z,22.26
2017-05-18T12:55:39.286Z,22.23
2017-05-18T12:56:50.298Z,22.24
2017-05-18T12:58:01.322Z,22.07
2017-05-18T12:59:12.802Z,22.05
2017-05-18T13:00:23.825Z,22.04
2017-05-18T13:01:34.847Z,22.08
2017-05-18T13:02:46.069Z,22
2017-05-18T13:03:57.100Z,21.97
2017-05-18T13:05:08.174Z,22.04
2017-05-18T13:06:19.588Z,22
2017-05-18T13:07:30.621Z,22.12
2017-05-18T13:08:41.647Z,22.04
2017-05-18T13:09:52.676Z,21.96
2017-05-18T13:11:03.901Z,21.96
2017-05-18T13:12:14.915Z,21.94
2017-05-18T13:13:25.933Z,21.96
2017-05-18T13:14:36.947Z,21.94
2017-05-18T13:15:48.011Z,21.86
2017-05-18T13:16:59.045Z,21.86
2017-05-18T13:18:10.322Z,21.85
2017-05-18T13:19:21.331Z,21.85
2017-05-18T13:20:32.351Z,21.89
2017-05-18T13:21:43.414Z,21.86
2017-05-18T13:22:54.640Z,21.86
2017-05-18T13:24:05.664Z,21.85
2017-05-18T13:25:16.892Z,21.96
2017-05-18T13:26:27.909Z,21.92
2017-05-18T13:27:38.924Z,21.99
2017-05-18T13:28:50.141Z,21.99
2017-05-18T13:30:01.158Z,22.02
2017-05-18T13:31:12.172Z,22.09
2017-05-18T13:32:23.243Z,22.12
2017-05-18T13:33:34.252Z,22.14
2017-05-18T13:34:45.279Z,22.22
2017-05-18T13:35:56.310Z,22.27
2017-05-18T13:37:07.332Z,22.26
2017-05-18T13:38:18.393Z,22.24
2017-05-18T13:39:29.680Z,22.2
2017-05-18T13:40:40.703Z,22.23
2017-05-18T13:41:51.919Z,22.23
2017-05-18T13:43:02.936Z,22.24
2017-05-18T13:44:14.008Z,22.22
2017-05-18T13:45:25.015Z,22.07
2017-05-18T13:46:36.033Z,21.94
2017-05-18T13:47:47.050Z,22.04
2017-05-18T13:48:58.069Z,21.86
2017-05-18T13:50:09.286Z,21.94
2017-05-18T13:51:20.500Z,21.94
2017-05-18T13:52:31.518Z,22.05
2017-05-18T13:53:42.534Z,22.2
2017-05-18T13:54:53.556Z,22.29
2017-05-18T13:56:04.828Z,22.3
2017-05-18T13:57:15.848Z,22.24
2017-05-18T13:58:27.071Z,22.3
2017-05-18T13:59:38.090Z,22.24
2017-05-18T14:00:49.114Z,22.23
2017-05-18T14:02:00.179Z,22.09
2017-05-18T14:03:11.404Z,21.96
2017-05-18T14:04:22.411Z,21.97
2017-05-18T14:05:33.418Z,22.04
2017-05-18T14:06:44.431Z,22.04
2017-05-18T14:07:55.498Z,22
2017-05-18T14:09:06.530Z,21.94
2017-05-18T14:10:17.550Z,21.85
2017-05-18T14:11:28.773Z,21.76
2017-05-18T14:12:39.798Z,21.76
2017-05-18T14:13:50.871Z,21.85
2017-05-18T14:15:01.892Z,21.77
2017-05-18T14:16:12.923Z,21.82
2017-05-18T14:17:24.136Z,21.78
2017-05-18T14:18:35.159Z,21.78
2017-05-18T14:19:46.231Z,21.7
2017-05-18T14:20:57.256Z,21.71
2017-05-18T14:22:08.284Z,21.62
2017-05-18T14:23:19.312Z,21.55
2017-05-18T14:24:30.336Z,21.52
2017-05-18T14:25:41.408Z,21.55
2017-05-18T14:26:52.432Z,21.48
2017-05-18T14:28:03.438Z,21.55
2017-05-18T14:29:14.458Z,21.64
2017-05-18T14:30:25.477Z,21.66
2017-05-18T14:31:36.550Z,21.58
2017-05-18T14:32:47.574Z,21.55
2017-05-18T14:33:58.599Z,21.52
2017-05-18T14:35:09.626Z,21.48
2017-05-18T14:36:20.648Z,21.46
2017-05-18T14:37:31.744Z,21.36
2017-05-18T14:38:42.969Z,21.36
2017-05-18T14:39:53.995Z,21.51
2017-05-18T14:41:05.011Z,21.51
2017-05-18T14:42:16.061Z,21.61
2017-05-18T14:43:27.127Z,21.62
2017-05-18T14:44:38.150Z,21.68
2017-05-18T14:45:49.161Z,21.73
2017-05-18T14:47:00.188Z,21.85
2017-05-18T14:48:11.212Z,21.76
2017-05-18T14:49:22.281Z,21.85
2017-05-18T14:50:33.308Z,21.86
2017-05-18T14:51:44.329Z,21.9
2017-05-18T14:52:55.356Z,21.83
2017-05-18T14:54:06.438Z,21.9
2017-05-18T14:55:17.520Z,21.86
2017-05-18T14:56:28.539Z,22
2017-05-18T14:57:39.545Z,21.97
2017-05-18T14:58:50.564Z,22.02
2017-05-18T15:00:01.565Z,22.07
2017-05-18T15:01:12.629Z,22.12
2017-05-18T15:02:23.644Z,22.22
2017-05-18T15:03:34.917Z,22.27
2017-05-18T15:04:46.145Z,22.26
2017-05-18T15:05:57.367Z,22.29
2017-05-18T15:07:08.430Z,22.44
2017-05-18T15:08:19.433Z,22.46
2017-05-18T15:09:30.667Z,22.51
2017-05-18T15:10:41.700Z,22.63
2017-05-18T15:11:52.715Z,22.64
2017-05-18T15:13:03.774Z,22.61
2017-05-18T15:14:15.001Z,22.64
2017-05-18T15:15:26.022Z,22.66
2017-05-18T15:16:37.052Z,22.61
2017-05-18T15:17:48.259Z,22.52
2017-05-18T15:18:59.326Z,22.48
2017-05-18T15:20:10.357Z,22.57